Time;durP1;ratioP1;P1;durP2;ratioP2;P2;SDS_P1;SDS_P2;PMS_P1;PMS_P2;Temp;Humidity;BMP_temperature;BMP_pressure;BME280_temperature;BME280_humidity;BME280_pressure;Samples;Min_cycle;Max_cycle;Signal;HPM_P1;HPM_P2
2023/08/15 00:00:48;;;;;;;5.00;3.78;;;18.20;34.00;;;;;;6108139;23;20081;-95
2023/08/15 00:03:50;;;;;;;;;;;;;;;;;;;;;
2023/08/15 00:06:44;;;;;;;;;;;;;;;;;;;;;
2023/08/15 00:09:22;;;;;;;5.07;3.97;;;17.70;37.10;;;;;;6136927;23;20391;-95
2023/08/15 00:12:28;;;;;;;;;;;;;;;;;;;;;
2023/08/15 00:14:57;;;;;;;4.22;3.53;;;18.00;37.00;;;;;;6136358;23;20096;-95
2023/08/15 00:17:48;;;;;;;4.88;3.13;;;17.60;35.80;;;;;;6112787;23;20021;-94
2023/08/15 00:20:46;;;;;;;3.58;2.92;;;17.90;34.50;;;;;;6114479;23;20017;-94
2023/08/15 00:23:25;;;;;;;;;;;;;;;;;;;;;
2023/08/15 00:26:11;;;;;;;;;;;;;;;;;;;;;
2023/08/15 00:28:58;;;;;;;;;;;;;;;;;;;;;
2023/08/15 00:31:53;;;;;;;7.53;3.55;;;17.10;38.70;;;;;;6121672;23;20023;-94
2023/08/15 00:34:33;;;;;;;3.40;3.10;;;18.60;38.80;;;;;;6141293;23;20032;-94
2023/08/15 00:37:11;;;;;;;5.13;3.65;;;17.90;36.30;;;;;;6118298;23;20341;-95
2023/08/15 00:39:58;;;;;;;;;;;;;;;;;;;;;
2023/08/15 00:42:46;;;;;;;;;;;;;;;;;;;;;
2023/08/15 00:48:33;;;;;;;;;;;;;;;;;;;;;
2023/08/15 00:51:17;;;;;;;;;;;;;;;;;;;;;
2023/08/15 00:53:53;;;;;;;5.68;4.40;;;17.70;37.90;;;;;;6164784;23;20025;-94
2023/08/15 00:57:10;;;;;;;5.93;4.28;;;17.70;39.20;;;;;;6140716;23;20017;-94
2023/08/15 01:00:09;;;;;;;5.55;3.42;;;17.70;37.50;;;;;;6161443;23;20113;-94
2023/08/15 01:03:07;;;;;;;5.00;3.63;;;17.60;37.70;;;;;;6118374;23;20056;-94
2023/08/15 01:05:36;;;;;;;;;;;17.50;38.70;;;;;;6099374;23;20016;-95
2023/08/15 01:08:27;;;;;;;6.63;4.38;;;17.50;45.40;;;;;;6139096;23;19916;-94
2023/08/15 01:11:06;;;;;;;5.88;4.38;;;17.50;40.50;;;;;;6140510;23;20017;-93
2023/08/15 01:14:21;;;;;;;7.72;4.95;;;18.00;43.50;;;;;;6136337;23;20465;-94
2023/08/15 01:17:18;;;;;;;5.70;4.03;;;17.50;44.60;;;;;;5997094;23;20023;-94
2023/08/15 01:20:22;;;;;;;6.65;5.03;;;17.10;45.00;;;;;;6121445;23;20048;-94
2023/08/15 01:23:13;;;;;;;6.22;4.55;;;17.60;45.30;;;;;;6136456;23;20017;-94
2023/08/15 01:26:11;;;;;;;6.22;4.68;;;17.60;44.80;;;;;;6137673;23;20020;-95
2023/08/15 01:28:56;;;;;;;7.22;5.22;;;17.60;46.60;;;;;;6137306;23;20017;-94
2023/08/15 01:31:36;;;;;;;7.97;4.95;;;17.30;46.20;;;;;;6138455;23;20019;-94
2023/08/15 01:35:11;;;;;;;6.07;5.22;;;17.60;46.30;;;;;;6140203;23;20017;-94
2023/08/15 01:37:56;;;;;;;7.77;5.30;;;17.60;46.40;;;;;;6157302;23;20438;-95
2023/08/15 01:41:03;;;;;;;8.27;5.63;;;17.60;46.80;;;;;;6139446;23;20276;-94
2023/08/15 01:43:56;;;;;;;9.65;6.88;;;17.50;48.50;;;;;;6137073;23;20013;-94
2023/08/15 01:46:46;;;;;;;;;;;;;;;;;;;;;
2023/08/15 01:49:24;;;;;;;12.93;8.10;;;17.60;50.90;;;;;;6161604;23;20017;-94
2023/08/15 01:52:01;;;;;;;13.13;7.65;;;17.50;51.10;;;;;;6137922;23;20017;-94
2023/08/15 01:54:35;;;;;;;10.20;8.10;;;17.50;51.50;;;;;;6112314;23;20105;-93
2023/08/15 01:57:09;;;;;;;10.52;7.28;;;17.60;52.30;;;;;;6090979;23;20028;-94
2023/08/15 01:59:47;;;;;;;;;;;;;;;;;;;;;
2023/08/15 02:02:24;;;;;;;9.20;7.93;;;17.60;52.20;;;;;;6141647;23;20024;-95
2023/08/15 02:05:20;;;;;;;;;;;;;;;;;;;;;
2023/08/15 02:08:17;;;;;;;9.50;7.60;;;17.50;51.30;;;;;;6143356;23;20471;-94
2023/08/15 02:10:59;;;;;;;;;;;;;;;;;;;;;
2023/08/15 02:13:38;;;;;;;8.57;7.20;;;16.80;50.90;;;;;;6142874;23;20014;-95
2023/08/15 02:16:35;;;;;;;8.43;7.57;;;17.50;51.70;;;;;;6115812;23;20021;-94
2023/08/15 02:19:12;;;;;;;9.88;7.97;;;17.50;53.40;;;;;;6125080;23;20023;-95
2023/08/15 02:21:58;;;;;;;;;;;;;;;;;;;;;
2023/08/15 02:24:53;;;;;;;13.00;8.43;;;17.50;55.00;;;;;;6161143;23;20024;-93
2023/08/15 02:27:29;;;;;;;11.95;8.60;;;17.50;55.00;;;;;;6119519;23;20020;-94
2023/08/15 02:30:02;;;;;;;9.27;8.07;;;17.50;55.70;;;;;;6113899;23;20048;-94
2023/08/15 02:32:44;;;;;;;;;;;;;;;;;;;;;
2023/08/15 02:35:29;;;;;;;;;;;;;;;;;;;;;
2023/08/15 02:38:20;;;;;;;9.68;8.65;;;17.50;55.80;;;;;;6162669;23;20013;-93
2023/08/15 02:41:04;;;;;;;11.63;7.60;;;17.60;55.60;;;;;;6116328;23;20017;-94
2023/08/15 02:44:04;;;;;;;12.32;9.65;;;17.50;56.10;;;;;;6139305;23;20105;-94
2023/08/15 02:46:45;;;;;;;;;;;;;;;;;;;;;
2023/08/15 02:49:38;;;;;;;12.57;9.65;;;18.00;60.00;;;;;;6139217;23;20040;-94
2023/08/15 02:52:11;;;;;;;11.48;9.48;;;16.80;62.10;;;;;;6137497;23;20013;-94
2023/08/15 02:54:49;;;;;;;11.55;10.25;;;17.50;64.30;;;;;;6089587;23;20017;-94
2023/08/15 02:57:31;;;;;;;;;;;;;;;;;;;;;
2023/08/15 03:00:33;;;;;;;13.88;11.80;;;17.20;67.50;;;;;;6142946;23;20017;-94
2023/08/15 03:03:09;;;;;;;14.45;11.00;;;17.60;68.60;;;;;;6136487;23;20021;-94
2023/08/15 03:06:19;;;;;;;14.00;12.50;;;17.70;70.50;;;;;;6112394;23;20055;-94
2023/08/15 03:09:17;;;;;;;;;;;;;;;;;;;;;
2023/08/15 03:12:24;;;;;;;15.48;13.25;;;17.70;74.10;;;;;;6146405;23;20104;-95
2023/08/15 03:15:03;;;;;;;15.90;12.68;;;17.70;77.00;;;;;;6159401;23;20451;-94
2023/08/15 03:17:50;;;;;;;;;;;;;;;;;;;;;
2023/08/15 03:20:35;;;;;;;14.07;12.60;;;17.80;82.10;;;;;;6141122;23;20017;-94
2023/08/15 03:23:13;;;;;;;15.30;12.07;;;17.80;81.50;;;;;;6093612;23;20017;-93
2023/08/15 03:26:04;;;;;;;12.57;11.30;;;17.80;81.50;;;;;;6139322;23;20456;-94
2023/08/15 03:29:04;;;;;;;;;;;;;;;;;;;;;
2023/08/15 03:31:35;;;;;;;18.70;13.68;;;17.80;82.60;;;;;;6142122;23;20021;-95
2023/08/15 03:34:24;;;;;;;14.50;12.50;;;17.00;83.60;;;;;;6115401;23;20031;-94
2023/08/15 03:37:23;;;;;;;18.42;16.52;;;18.00;85.80;;;;;;6140595;23;20023;-94
2023/08/15 03:40:06;;;;;;;21.27;16.77;;;17.90;89.20;;;;;;6141021;23;20068;-94
2023/08/15 03:42:58;;;;;;;17.58;15.88;;;17.00;91.60;;;;;;6142318;23;20020;-94
2023/08/15 03:46:14;;;;;;;;;;;;;;;;;;;;;
2023/08/15 03:49:08;;;;;;;20.15;17.50;;;18.10;99.90;;;;;;6164844;23;20020;-94
2023/08/15 03:51:54;;;;;;;20.23;16.60;;;17.80;99.90;;;;;;6118484;23;20092;-95
2023/08/15 03:55:00;;;;;;;;;;;;;;;;;;;;;
2023/08/15 03:57:57;;;;;;;19.83;17.80;;;18.30;99.90;;;;;;6142253;23;20017;-95
2023/08/15 04:00:45;;;;;;;;;;;;;;;;;;;;;
2023/08/15 04:03:18;;;;;;;18.63;16.67;;;18.30;99.90;;;;;;6160790;23;20021;-94
2023/08/15 04:06:03;;;;;;;20.48;17.33;;;18.40;99.90;;;;;;6137538;23;20017;-95
2023/08/15 04:08:47;;;;;;;;;;;;;;;;;;;;;
2023/08/15 04:11:43;;;;;;;;;;;;;;;;;;;;;
2023/08/15 04:14:22;;;;;;;21.75;17.35;;;18.40;99.90;;;;;;6141469;23;20028;-93
2023/08/15 04:17:06;;;;;;;;;;;;;;;;;;;;;
2023/08/15 04:20:04;;;;;;;18.33;16.42;;;17.80;99.90;;;;;;6143669;23;20031;-95
2023/08/15 04:22:50;;;;;;;;;;;18.40;99.90;;;;;;6139502;23;20021;-94
2023/08/15 04:25:33;;;;;;;16.92;15.13;;;18.40;99.90;;;;;;6118469;23;20340;-94
2023/08/15 04:28:30;;;;;;;17.13;15.50;;;18.30;99.90;;;;;;6139516;23;20026;-94
2023/08/15 04:34:06;;;;;;;14.95;13.35;;;18.50;99.90;;;;;;6132144;23;20028;-93
2023/08/15 04:36:53;;;;;;;;;;;;;;;;;;;;;
2023/08/15 04:39:27;;;;;;;21.77;16.95;;;17.40;99.90;;;;;;6140606;23;20367;-94
2023/08/15 04:42:12;;;;;;;21.00;16.52;;;18.30;99.90;;;;;;6137859;23;20112;-95
2023/08/15 04:45:09;;;;;;;19.50;16.23;;;18.30;99.90;;;;;;6097357;23;20438;-94
2023/08/15 04:48:01;;;;;;;20.10;17.33;;;18.40;99.90;;;;;;6120646;23;20075;-93
2023/08/15 04:50:58;;;;;;;;;;;;;;;;;;;;;
2023/08/15 04:53:34;;;;;;;19.60;17.65;;;17.80;99.90;;;;;;6164880;23;20023;-93
2023/08/15 04:56:13;;;;;;;;;;;;;;;;;;;;;
2023/08/15 04:59:19;;;;;;;;;;;;;;;;;;;;;
2023/08/15 05:01:52;;;;;;;23.38;16.58;;;17.80;99.90;;;;;;6140960;23;20021;-94
2023/08/15 05:04:23;;;;;;;17.08;15.18;;;18.40;99.90;;;;;;6134518;23;20025;-94
2023/08/15 05:07:20;;;;;;;19.23;16.63;;;18.40;99.90;;;;;;6113625;23;20108;-94
2023/08/15 05:09:57;;;;;;;17.92;15.63;;;17.60;99.90;;;;;;6114771;23;20021;-94
2023/08/15 05:12:36;;;;;;;20.23;15.55;;;18.30;99.90;;;;;;6091093;23;20091;-94
2023/08/15 05:15:13;;;;;;;18.38;15.68;;;18.40;99.90;;;;;;6095625;23;20017;-94
2023/08/15 05:18:14;;;;;;;18.90;15.63;;;18.30;99.90;;;;;;6139390;23;20052;-94
2023/08/15 05:21:11;;;;;;;18.60;15.23;;;18.40;99.90;;;;;;6110769;23;20017;-94
2023/08/15 05:24:23;;;;;;;15.85;13.90;;;18.40;99.90;;;;;;6141196;23;20017;-94
2023/08/15 05:27:03;;;;;;;18.35;15.57;;;17.40;99.90;;;;;;6168986;23;20398;-95
2023/08/15 05:29:44;;;;;;;19.35;15.38;;;18.40;99.90;;;;;;6136238;23;20017;-95
2023/08/15 05:32:18;;;;;;;15.88;12.57;;;18.40;99.90;;;;;;6113959;23;20028;-94
2023/08/15 05:34:57;;;;;;;16.30;12.55;;;19.50;99.90;;;;;;6115302;23;20017;-94
2023/08/15 05:37:35;;;;;;;16.00;11.45;;;19.10;99.90;;;;;;6138114;23;20025;-94
2023/08/15 05:40:26;;;;;;;16.80;12.20;;;18.40;99.90;;;;;;6138437;23;20442;-94
2023/08/15 05:43:17;;;;;;;12.80;10.43;;;18.50;99.20;;;;;;6142732;23;20017;-95
2023/08/15 05:45:50;;;;;;;13.65;11.07;;;18.40;99.10;;;;;;6120687;23;20497;-94
2023/08/15 05:48:24;;;;;;;12.98;9.45;;;18.40;98.70;;;;;;6114852;23;20021;-94
2023/08/15 05:51:04;;;;;;;13.52;10.40;;;18.50;98.20;;;;;;6140384;23;20458;-93
2023/08/15 05:53:35;;;;;;;12.13;10.32;;;18.40;98.10;;;;;;6115332;23;20013;-94
2023/08/15 05:56:24;;;;;;;15.00;10.95;;;17.50;97.60;;;;;;6118399;23;20513;-95
2023/08/15 05:59:00;;;;;;;11.73;9.52;;;17.60;97.20;;;;;;6118279;23;20197;-94
2023/08/15 06:01:55;;;;;;;;;;;;;;;;;;;;;
2023/08/15 06:04:40;;;;;;;13.50;11.63;;;18.20;97.30;;;;;;6117635;23;20088;-95
2023/08/15 06:07:56;;;;;;;;;;;;;;;;;;;;;
2023/08/15 06:10:48;;;;;;;12.63;10.15;;;18.40;96.80;;;;;;6162759;23;20446;-94
2023/08/15 06:13:53;;;;;;;;;;;;;;;;;;;;;
2023/08/15 06:16:39;;;;;;;;;;;;;;;;;;;;;
2023/08/15 06:19:25;;;;;;;12.48;8.63;;;18.50;96.60;;;;;;6163417;23;20048;-95
2023/08/15 06:21:51;;;;;;;8.50;7.57;;;18.50;96.20;;;;;;6117640;23;20069;-94
2023/08/15 06:25:21;;;;;;;14.32;7.82;;;18.50;95.50;;;;;;6136958;23;20013;-95
2023/08/15 06:28:01;;;;;;;;;;;;;;;;;;;;;
2023/08/15 06:41:33;;;;;;;;;;;;;;;;;;;;;
2023/08/15 06:44:37;;;;;;;7.93;5.53;;;19.30;93.00;;;;;;6159976;23;20018;-96
2023/08/15 06:47:32;;;;;;;;;;;;;;;;;;;;;
2023/08/15 06:50:34;;;;;;;;;;;;;;;;;;;;;
2023/08/15 06:57:02;;;;;;;9.20;4.70;;;19.60;78.90;;;;;;6158276;23;20056;-96
2023/08/15 07:07:37;;;;;;;;;;;;;;;;;;;;;
2023/08/15 07:10:20;;;;;;;;;;;;;;;;;;;;;
2023/08/15 07:17:19;;;;;;;8.50;4.68;;;20.50;72.60;;;;;;6091676;23;20021;-95
2023/08/15 07:26:31;;;;;;;;;;;;;;;;;;;;;
2023/08/15 07:29:28;;;;;;;;;;;;;;;;;;;;;
2023/08/15 07:32:11;;;;;;;;;;;;;;;;;;;;;
2023/08/15 07:35:26;;;;;;;10.27;4.47;;;22.20;41.30;;;;;;6115266;23;20040;-95
2023/08/15 07:41:17;;;;;;;7.65;4.25;;;21.40;37.60;;;;;;6140038;23;20029;-96
2023/08/15 07:44:15;;;;;;;8.60;3.22;;;21.60;35.60;;;;;;6082140;23;20092;-96
2023/08/15 07:47:24;;;;;;;7.70;3.78;;;21.00;32.10;;;;;;6087680;23;20065;-96
2023/08/15 07:53:34;;;;;;;9.30;3.88;;;21.60;15.70;;;;;;6130518;23;20114;-96
2023/08/15 07:56:37;;;;;;;7.97;3.80;;;21.70;13.10;;;;;;6087216;23;20153;-96
2023/08/15 08:03:17;;;;;;;;;;;;;;;;;;;;;
2023/08/15 08:10:08;;;;;;;6.15;2.90;;;21.40;22.90;;;;;;6153630;23;20028;-95
2023/08/15 08:13:11;;;;;;;6.88;3.20;;;21.40;24.90;;;;;;6133289;23;20024;-96
2023/08/15 08:21:06;;;;;;;;;;;;;;;;;;;;;
2023/08/15 08:24:19;;;;;;;4.30;2.20;;;21.30;15.40;;;;;;6157047;23;20053;-96
2023/08/15 08:27:48;;;;;;;;;;;;;;;;;;;;;
2023/08/15 08:30:52;;;;;;;;;;;;;;;;;;;;;
2023/08/15 08:33:55;;;;;;;;;;;;;;;;;;;;;
2023/08/15 08:37:25;;;;;;;5.78;2.90;;;20.60;10.90;;;;;;6134741;23;20043;-96
2023/08/15 08:40:29;;;;;;;;;;;;;;;;;;;;;
2023/08/15 08:43:21;;;;;;;8.15;2.40;;;20.40;11.20;;;;;;6146116;23;20017;-96
2023/08/15 08:49:39;;;;;;;;;;;;;;;;;;;;;
2023/08/15 08:56:41;;;;;;;;;;;;;;;;;;;;;
2023/08/15 08:59:59;;;;;;;;;;;;;;;;;;;;;
2023/08/15 09:02:59;;;;;;;;;;;;;;;;;;;;;
2023/08/15 09:05:50;;;;;;;5.93;2.42;;;21.80;1.00;;;;;;6077783;23;20018;-95
2023/08/15 09:08:39;;;;;;;;;;;;;;;;;;;;;
2023/08/15 09:11:32;;;;;;;;;;;;;;;;;;;;;
2023/08/15 09:14:31;;;;;;;7.63;2.60;;;20.90;2.10;;;;;;6109160;23;20024;-96
2023/08/15 09:17:33;;;;;;;;;;;;;;;;;;;;;
2023/08/15 09:21:06;;;;;;;;;;;;;;;;;;;;;
2023/08/15 09:31:15;;;;;;;;;;;;;;;;;;;;;
2023/08/15 09:33:56;;;;;;;;;;;;;;;;;;;;;
2023/08/15 09:40:04;;;;;;;7.85;2.15;;;22.40;1.00;;;;;;6039574;23;20097;-96
2023/08/15 09:43:15;;;;;;;;;;;;;;;;;;;;;
2023/08/15 09:50:16;;;;;;;4.13;1.90;;;21.40;1.00;;;;;;6099952;23;20033;-96
2023/08/15 09:53:14;;;;;;;5.68;2.45;;;21.70;1.00;;;;;;6050182;23;20019;-95
2023/08/15 09:59:04;;;;;;;3.90;2.00;;;22.10;1.00;;;;;;6057409;23;20019;-96
2023/08/15 10:01:58;;;;;;;;;;;;;;;;;;;;;
2023/08/15 10:08:09;;;;;;;;;;;;;;;;;;;;;
2023/08/15 10:10:56;;;;;;;4.13;2.50;;;21.90;1.00;;;;;;6025686;23;20457;-95
2023/08/15 10:14:01;;;;;;;3.70;1.80;;;22.00;1.00;;;;;;6090449;23;20099;-95
2023/08/15 10:17:38;;;;;;;;;;;;;;;;;;;;;
2023/08/15 10:20:45;;;;;;;5.72;1.90;;;22.10;1.00;;;;;;6158852;23;20040;-96
2023/08/15 10:24:00;;;;;;;4.93;2.33;;;22.10;1.00;;;;;;6138515;23;20028;-96
2023/08/15 10:26:37;;;;;;;4.88;2.85;;;21.40;1.00;;;;;;6139397;23;20017;-96
2023/08/15 10:30:19;;;;;;;;;;;;;;;;;;;;;
2023/08/15 10:36:38;;;;;;;5.72;3.30;;;22.30;1.00;;;;;;6141109;23;20057;-95
2023/08/15 10:42:33;;;;;;;;;;;;;;;;;;;;;
2023/08/15 10:48:54;;;;;;;;;;;;;;;;;;;;;
2023/08/15 10:52:19;;;;;;;;;;;;;;;;;;;;;
2023/08/15 11:05:51;;;;;;;;;;;;;;;;;;;;;
2023/08/15 11:09:15;;;;;;;;;;;;;;;;;;;;;
2023/08/15 11:11:54;;;;;;;4.40;2.70;;;23.10;1.00;;;;;;6153972;23;20072;-95
2023/08/15 11:14:56;;;;;;;3.70;2.40;;;23.00;1.00;;;;;;6135535;23;20128;-96
2023/08/15 11:18:25;;;;;;;;;;;;;;;;;;;;;
2023/08/15 11:21:39;;;;;;;4.65;1.63;;;22.30;1.00;;;;;;6067789;23;20019;-96
2023/08/15 11:24:46;;;;;;;;;;;;;;;;;;;;;
2023/08/15 11:27:58;;;;;;;4.65;2.00;;;23.00;1.00;;;;;;6137834;23;20068;-96
2023/08/15 11:34:32;;;;;;;3.90;2.50;;;23.60;1.00;;;;;;6072860;23;20085;-96
2023/08/15 11:37:49;;;;;;;;;;;;;;;;;;;;;
2023/08/15 11:41:11;;;;;;;4.22;2.13;;;23.80;1.00;;;;;;6167227;23;20017;-96
2023/08/15 11:47:45;;;;;;;;;;;;;;;;;;;;;
2023/08/15 11:50:53;;;;;;;;;;;;;;;;;;;;;
2023/08/15 11:57:17;;;;;;;;;;;;;;;;;;;;;
2023/08/15 12:03:38;;;;;;;3.75;2.00;;;23.20;1.00;;;;;;6130053;23;20048;-96
2023/08/15 12:06:39;;;;;;;;;;;;;;;;;;;;;
2023/08/15 12:09:30;;;;;;;;;;;;;;;;;;;;;
2023/08/15 12:12:06;;;;;;;4.78;2.75;;;22.90;1.00;;;;;;6164448;23;20315;-96
2023/08/15 12:15:01;;;;;;;;;;;;;;;;;;;;;
2023/08/15 12:18:04;;;;;;;4.03;2.63;;;23.10;1.00;;;;;;6163179;23;20475;-96
2023/08/15 12:24:16;;;;;;;3.80;2.42;;;23.30;1.00;;;;;;6030655;23;20053;-96
2023/08/15 12:27:41;;;;;;;;;;;;;;;;;;;;;
2023/08/15 12:33:47;;;;;;;;;;;;;;;;;;;;;
2023/08/15 12:36:27;;;;;;;;;;;;;;;;;;;;;
2023/08/15 12:43:10;;;;;;;7.03;2.90;;;23.40;1.00;;;;;;6077355;23;20068;-96
2023/08/15 12:46:00;;;;;;;4.18;2.80;;;22.90;1.00;;;;;;5964958;24;20021;-96
2023/08/15 12:52:36;;;;;;;;;;;;;;;;;;;;;
2023/08/15 12:59:25;;;;;;;;;;;;;;;;;;;;;
2023/08/15 13:02:27;;;;;;;;;;;;;;;;;;;;;
2023/08/15 13:05:23;;;;;;;;;;;;;;;;;;;;;
2023/08/15 13:08:20;;;;;;;;;;;;;;;;;;;;;
2023/08/15 13:11:20;;;;;;;4.35;2.58;;;23.30;1.00;;;;;;5971300;23;20016;-94
2023/08/15 13:17:37;;;;;;;;;;;;;;;;;;;;;
2023/08/15 13:20:41;;;;;;;;;;;;;;;;;;;;;
2023/08/15 13:27:11;;;;;;;;;;;;;;;;;;;;;
2023/08/15 13:33:36;;;;;;;;;;;;;;;;;;;;;
2023/08/15 13:43:25;;;;;;;4.43;2.65;;;22.30;1.00;;;;;;6189502;23;20055;-94
2023/08/15 13:46:28;;;;;;;5.07;2.60;;;23.00;1.00;;;;;;6022271;23;20094;-96
2023/08/15 13:52:39;;;;;;;;;;;;;;;;;;;;;
2023/08/15 13:55:17;;;;;;;4.22;1.60;;;23.10;1.00;;;;;;6151493;23;20047;-95
2023/08/15 13:58:11;;;;;;;;;;;;;;;;;;;;;
2023/08/15 14:01:34;;;;;;;3.50;2.00;;;24.10;1.00;;;;;;6139770;23;20525;-94
2023/08/15 14:04:04;;;;;;;4.28;2.00;;;23.10;1.00;;;;;;6137399;23;20075;-94
2023/08/15 14:06:51;;;;;;;2.83;1.95;;;23.20;1.00;;;;;;6138936;23;20025;-95
2023/08/15 14:10:13;;;;;;;;;;;;;;;;;;;;;
2023/08/15 14:16:42;;;;;;;;;;;;;;;;;;;;;
2023/08/15 14:20:15;;;;;;;2.42;1.70;;;23.30;1.00;;;;;;6146412;23;20017;-95
2023/08/15 14:23:16;;;;;;;2.03;1.73;;;23.40;1.00;;;;;;6115426;23;20021;-96
2023/08/15 14:33:36;;;;;;;3.10;1.60;;;23.20;1.00;;;;;;6071166;23;20949;-96
2023/08/15 14:36:37;;;;;;;3.00;2.03;;;23.20;1.00;;;;;;5971030;23;20034;-95
2023/08/15 14:39:17;;;;;;;1.73;1.63;;;23.40;1.00;;;;;;5991243;23;20037;-94
2023/08/15 14:45:15;;;;;;;3.47;3.05;;;23.60;1.00;;;;;;6091209;23;20056;-95
2023/08/15 14:48:15;;;;;;;3.20;2.20;;;23.30;1.00;;;;;;6090787;23;20075;-96
2023/08/15 14:51:25;;;;;;;6.20;2.83;;;23.40;1.00;;;;;;6093450;23;20014;-95
2023/08/15 14:54:20;;;;;;;2.20;1.70;;;23.30;1.00;;;;;;6114472;23;20036;-95
2023/08/15 14:56:56;;;;;;;2.67;1.67;;;23.30;1.00;;;;;;6109675;23;20017;-95
2023/08/15 14:59:53;;;;;;;5.78;1.90;;;23.20;1.00;;;;;;6089457;23;20522;-96
2023/08/15 15:03:03;;;;;;;;;;;;;;;;;;;;;
2023/08/15 15:05:51;;;;;;;6.10;1.95;;;23.10;1.00;;;;;;6131436;23;20053;-94
2023/08/15 15:08:23;;;;;;;3.80;1.90;;;22.10;1.00;;;;;;6107308;23;20392;-93
2023/08/15 15:11:12;;;;;;;5.35;2.00;;;23.20;1.00;;;;;;6110799;23;20450;-95
2023/08/15 15:13:47;;;;;;;4.35;2.15;;;22.40;1.00;;;;;;6086044;23;20049;-95
2023/08/15 15:16:45;;;;;;;2.78;2.00;;;23.40;1.00;;;;;;6107286;23;20474;-94
2023/08/15 15:22:23;;;;;;;8.68;2.92;;;23.30;99.90;;;;;;6092891;23;20080;-94
2023/08/15 15:25:02;;;;;;;;;;;;;;;;;;;;;
2023/08/15 15:27:34;;;;;;;2.42;1.80;;;23.20;1.00;;;;;;6133354;23;20080;-96
2023/08/15 15:33:16;;;;;;;7.32;3.03;;;23.50;99.90;;;;;;6079927;23;20053;-95
2023/08/15 15:36:15;;;;;;;;;;;;;;;;;;;;;
2023/08/15 15:38:52;;;;;;;5.45;2.00;;;23.40;99.90;;;;;;6161262;23;20052;-95
2023/08/15 15:44:57;;;;;;;;;;;;;;;;;;;;;
2023/08/15 15:47:41;;;;;;;;;;;;;;;;;;;;;
2023/08/15 15:53:41;;;;;;;3.30;1.80;;;22.90;99.90;;;;;;6128552;23;20036;-95
2023/08/15 15:56:46;;;;;;;5.22;2.25;;;23.60;99.90;;;;;;6101894;23;20048;-96
2023/08/15 15:59:21;;;;;;;3.72;2.33;;;24.40;99.90;;;;;;6137288;23;20017;-95
2023/08/15 16:02:15;;;;;;;;;;;;;;;;;;;;;
2023/08/15 16:04:59;;;;;;;3.15;1.85;;;22.60;99.90;;;;;;6160918;23;20024;-95
2023/08/15 16:07:36;;;;;;;3.17;1.90;;;23.40;99.90;;;;;;6114351;23;20021;-95
2023/08/15 16:13:28;;;;;;;;;;;;;;;;;;;;;
2023/08/15 16:16:09;;;;;;;3.30;1.98;;;23.50;1.00;;;;;;6125457;23;20249;-95
2023/08/15 16:19:17;;;;;;;;;;;;;;;;;;;;;
2023/08/15 16:24:59;;;;;;;2.55;1.98;;;23.80;99.90;;;;;;6124465;23;20021;-94
2023/08/15 16:27:28;;;;;;;4.30;2.40;;;23.40;99.90;;;;;;6116268;23;20041;-95
2023/08/15 16:30:04;;;;;;;3.67;2.08;;;23.30;99.90;;;;;;6140305;23;20024;-94
2023/08/15 16:32:48;;;;;;;3.35;2.00;;;23.10;99.90;;;;;;6090099;23;20480;-95
2023/08/15 16:35:34;;;;;;;5.05;1.58;;;23.20;99.90;;;;;;6146726;23;20044;-94
2023/08/15 16:38:14;;;;;;;2.83;1.83;;;23.20;99.90;;;;;;6139249;23;20362;-95
2023/08/15 16:41:36;;;;;;;4.57;2.20;;;23.20;99.90;;;;;;6116087;23;20013;-94
2023/08/15 16:44:16;;;;;;;;;;;;;;;;;;;;;
2023/08/15 16:46:42;;;;;;;3.75;1.88;;;23.30;1.00;;;;;;6140651;23;20013;-95
2023/08/15 16:49:27;;;;;;;3.92;1.50;;;22.50;99.90;;;;;;6138143;23;20083;-95
2023/08/15 16:55:31;;;;;;;;;;;;;;;;;;;;;
2023/08/15 16:58:19;;;;;;;;;;;;;;;;;;;;;
2023/08/15 17:01:12;;;;;;;6.05;1.80;;;22.70;1.00;;;;;;6162302;23;20017;-95
2023/08/15 17:03:55;;;;;;;1.75;1.38;;;23.10;99.90;;;;;;6072777;23;20017;-94
2023/08/15 17:06:21;;;;;;;3.60;1.35;;;23.00;42.40;;;;;;6137131;23;20346;-87
2023/08/15 17:08:47;;;;;;;2.03;1.20;;;22.80;1.00;;;;;;6160517;23;20021;-86
2023/08/15 17:11:13;;;;;;;3.83;1.70;;;22.80;99.90;;;;;;6134753;23;20013;-85
2023/08/15 17:13:38;;;;;;;2.38;1.20;;;22.70;1.00;;;;;;6160050;23;20044;-85
2023/08/15 17:16:04;;;;;;;3.25;1.40;;;22.60;99.90;;;;;;6134903;23;20057;-85
2023/08/15 17:18:30;;;;;;;3.15;1.40;;;22.50;68.30;;;;;;6160288;23;20418;-86
2023/08/15 17:20:56;;;;;;;4.25;1.63;;;22.40;1.00;;;;;;6162692;23;20021;-83
2023/08/15 17:23:22;;;;;;;3.10;1.83;;;22.30;99.90;;;;;;6159565;23;20021;-85
2023/08/15 17:25:47;;;;;;;3.63;2.20;;;22.30;99.90;;;;;;6134995;23;20044;-85
2023/08/15 17:28:13;;;;;;;3.35;1.90;;;22.10;91.20;;;;;;6159627;23;20024;-86
2023/08/15 17:30:39;;;;;;;2.97;1.27;;;22.10;1.00;;;;;;6109084;23;20331;-87
2023/08/15 17:33:05;;;;;;;1.77;1.17;;;22.00;99.90;;;;;;6159424;23;20073;-87
2023/08/15 17:35:31;;;;;;;3.80;1.40;;;22.00;99.90;;;;;;6134645;23;20017;-87
2023/08/15 17:37:57;;;;;;;3.00;1.52;;;21.90;6.10;;;;;;6185627;23;20060;-87
2023/08/15 17:40:23;;;;;;;2.25;1.02;;;21.90;1.00;;;;;;6158975;23;20017;-91
2023/08/15 17:42:48;;;;;;;1.83;1.38;;;21.90;1.00;;;;;;6159106;23;20095;-87
2023/08/15 17:45:14;;;;;;;1.38;1.20;;;21.80;28.90;;;;;;6110221;23;20052;-88
2023/08/15 17:47:40;;;;;;;7.00;2.28;;;21.80;99.90;;;;;;6134474;23;20021;-87
2023/08/15 17:50:06;;;;;;;3.53;1.33;;;21.70;99.90;;;;;;6159093;23;20335;-86
2023/08/15 17:52:34;;;;;;;2.60;1.17;;;21.70;99.90;;;;;;6157542;23;20014;-86
2023/08/15 17:55:00;;;;;;;3.22;1.05;;;21.60;1.00;;;;;;6134929;23;20430;-86
2023/08/15 17:57:27;;;;;;;2.92;1.45;;;21.50;1.00;;;;;;6134670;23;20052;-86
2023/08/15 17:59:53;;;;;;;2.17;1.15;;;21.40;99.90;;;;;;6159491;23;20036;-86
2023/08/15 18:02:19;;;;;;;3.35;1.30;;;21.30;99.90;;;;;;6186500;23;20395;-83
2023/08/15 18:04:45;;;;;;;2.20;1.35;;;21.30;99.90;;;;;;6134433;23;20027;-87
2023/08/15 18:07:11;;;;;;;2.03;1.20;;;21.30;99.90;;;;;;6159727;23;20096;-86
2023/08/15 18:09:37;;;;;;;3.40;1.13;;;21.20;99.90;;;;;;6134053;23;20020;-85
2023/08/15 18:12:03;;;;;;;4.25;1.10;;;21.10;99.90;;;;;;6185200;23;20327;-88
2023/08/15 18:14:29;;;;;;;;;;;21.10;99.90;;;;;;6087197;23;20025;-85
2023/08/15 18:16:54;;;;;;;3.03;0.80;;;21.00;1.00;;;;;;6158990;23;19971;-86
2023/08/15 18:19:20;;;;;;;1.85;1.00;;;20.90;99.90;;;;;;6159037;23;20096;-85
2023/08/15 18:21:46;;;;;;;1.83;1.00;;;21.00;9.60;;;;;;6159202;23;20775;-85
2023/08/15 18:24:12;;;;;;;1.38;1.10;;;20.90;99.90;;;;;;6159385;23;20063;-83
2023/08/15 18:26:38;;;;;;;1.73;1.10;;;20.90;99.90;;;;;;6185761;23;20021;-86
2023/08/15 18:29:04;;;;;;;2.22;1.13;;;20.80;99.10;;;;;;6159406;23;20024;-84
2023/08/15 18:31:30;;;;;;;1.10;0.90;;;20.80;99.90;;;;;;6159754;23;20055;-85
2023/08/15 18:33:56;;;;;;;3.08;1.00;;;20.70;99.90;;;;;;6159821;23;20021;-85
2023/08/15 18:36:21;;;;;;;2.40;0.80;;;20.70;1.00;;;;;;6158527;23;20521;-85
2023/08/15 18:38:47;;;;;;;1.48;0.80;;;20.70;99.90;;;;;;6134117;23;20334;-86
2023/08/15 18:41:13;;;;;;;1.15;1.08;;;20.60;99.90;;;;;;6133651;23;20028;-85
2023/08/15 18:43:38;;;;;;;1.90;0.90;;;20.60;99.90;;;;;;6158307;23;20027;-86
2023/08/15 18:46:04;;;;;;;1.67;0.95;;;20.60;93.40;;;;;;6184397;23;20019;-85
2023/08/15 18:48:30;;;;;;;5.35;1.30;;;20.60;1.00;;;;;;6158794;23;20020;-87
2023/08/15 18:50:56;;;;;;;1.23;0.82;;;20.50;99.90;;;;;;6109033;23;20016;-85
2023/08/15 18:53:22;;;;;;;3.13;1.00;;;20.50;44.30;;;;;;6157794;23;20017;-85
2023/08/15 18:55:48;;;;;;;1.88;1.02;;;20.40;99.90;;;;;;6157872;23;20028;-85
2023/08/15 18:58:13;;;;;;;1.45;1.02;;;20.30;1.00;;;;;;6184608;23;20053;-83
2023/08/15 19:00:39;;;;;;;2.22;1.77;;;20.30;42.10;;;;;;6158008;23;20024;-85
2023/08/15 19:03:05;;;;;;;2.20;1.40;;;20.20;99.90;;;;;;6184640;23;20024;-87
2023/08/15 19:05:31;;;;;;;1.60;1.40;;;20.10;99.90;;;;;;6184486;23;20464;-85
2023/08/15 19:07:57;;;;;;;4.25;2.00;;;20.10;99.90;;;;;;6158783;23;20017;-85
2023/08/15 19:10:23;;;;;;;1.65;1.52;;;20.00;1.00;;;;;;6184907;23;20092;-86
2023/08/15 19:12:49;;;;;;;1.40;1.00;;;19.90;1.00;;;;;;6183847;23;20021;-85
2023/08/15 19:15:19;;;;;;;1.42;1.10;;;19.80;93.40;;;;;;6158104;23;20021;-85
2023/08/15 19:17:48;;;;;;;1.25;1.08;;;19.70;99.90;;;;;;6157958;23;20346;-84
2023/08/15 19:20:15;;;;;;;1.50;1.40;;;19.70;99.90;;;;;;6184293;23;20036;-86
2023/08/15 19:22:40;;;;;;;1.33;1.23;;;19.50;99.90;;;;;;6184061;23;20017;-85
2023/08/15 19:25:06;;;;;;;5.05;1.35;;;19.40;99.90;;;;;;6158352;23;20063;-85
2023/08/15 19:27:32;;;;;;;1.95;1.30;;;19.30;99.90;;;;;;6184333;23;20017;-85
2023/08/15 19:29:58;;;;;;;2.63;1.60;;;19.30;99.90;;;;;;6183453;23;20323;-85
2023/08/15 19:32:25;;;;;;;5.05;1.30;;;19.20;99.90;;;;;;6157269;23;20141;-84
2023/08/15 19:34:50;;;;;;;2.13;1.20;;;19.20;99.90;;;;;;6183309;23;20446;-84
2023/08/15 19:37:16;;;;;;;2.25;1.33;;;19.10;99.90;;;;;;6158304;23;20025;-83
2023/08/15 19:39:42;;;;;;;1.77;1.30;;;19.10;99.90;;;;;;6182817;23;20013;-84
2023/08/15 19:42:08;;;;;;;2.08;1.13;;;19.00;99.90;;;;;;6184237;23;20096;-85
2023/08/15 19:44:34;;;;;;;2.70;0.98;;;18.90;99.90;;;;;;6184252;23;20152;-86
2023/08/15 19:47:00;;;;;;;1.27;1.02;;;18.80;99.90;;;;;;6157680;23;20036;-86
2023/08/15 19:49:29;;;;;;;5.40;1.50;;;18.70;99.90;;;;;;6133860;23;20024;-88
2023/08/15 19:51:56;;;;;;;2.08;1.25;;;18.60;99.90;;;;;;6158507;23;20039;-87
2023/08/15 19:54:22;;;;;;;1.42;1.13;;;18.60;99.90;;;;;;6159696;23;20021;-87
2023/08/15 19:56:48;;;;;;;;;;;18.50;99.90;;;;;;6186214;23;20052;-86
2023/08/15 19:59:14;;;;;;;1.13;1.05;;;18.50;99.90;;;;;;6159694;23;19939;-85
2023/08/15 20:01:39;;;;;;;2.00;1.40;;;18.40;99.90;;;;;;6159649;23;20021;-84